Time;durP1;ratioP1;P1;durP2;ratioP2;P2;SDS_P1;SDS_P2;PMS_P1;PMS_P2;Temp;Humidity;BMP_temperature;BMP_pressure;BME280_temperature;BME280_humidity;BME280_pressure;Samples;Min_cycle;Max_cycle;Signal;HPM_P1;HPM_P2
2022/06/05 00:02:12;;;;;;;7.45;4.47;;;17.10;98.70;;;;;;5056409;28;20037;-77
2022/06/05 00:05:13;;;;;;;8.50;4.78;;;17.10;98.80;;;;;;5054147;28;20481;-77
2022/06/05 00:08:12;;;;;;;11.85;4.82;;;17.10;98.90;;;;;;5054059;28;20033;-76
2022/06/05 00:10:55;;;;;;;8.20;4.28;;;17.00;99.20;;;;;;5060656;28;20028;-76
2022/06/05 00:13:52;;;;;;;7.47;5.10;;;17.00;99.30;;;;;;5063757;28;20016;-77
2022/06/05 00:16:24;;;;;;;6.75;4.45;;;17.00;99.60;;;;;;5072935;28;20064;-77
2022/06/05 00:18:52;;;;;;;10.02;5.15;;;17.00;99.70;;;;;;5062094;28;20040;-76
2022/06/05 00:21:19;;;;;;;12.18;4.80;;;16.90;99.80;;;;;;5062784;28;20070;-77
2022/06/05 00:23:46;;;;;;;7.97;4.93;;;16.90;99.90;;;;;;5061516;28;20358;-77
2022/06/05 00:26:39;;;;;;;9.25;4.97;;;16.90;99.90;;;;;;5053547;28;20377;-77
2022/06/05 00:29:29;;;;;;;7.15;4.95;;;16.90;99.90;;;;;;5052807;28;20079;-76
2022/06/05 00:32:30;;;;;;;7.43;4.90;;;16.80;99.90;;;;;;5064156;28;20021;-76
2022/06/05 00:34:55;;;;;;;9.27;5.43;;;16.80;99.90;;;;;;5072892;28;20017;-76
2022/06/05 00:37:29;;;;;;;9.18;5.35;;;16.80;99.90;;;;;;5063844;28;20056;-77
2022/06/05 00:40:37;;;;;;;10.18;5.10;;;16.80;99.90;;;;;;5053212;28;20025;-76
2022/06/05 00:43:09;;;;;;;7.22;4.68;;;16.70;99.90;;;;;;5062749;28;20037;-76
2022/06/05 00:45:35;;;;;;;8.48;4.60;;;16.70;99.90;;;;;;5069477;28;20013;-76
2022/06/05 00:48:02;;;;;;;8.82;4.78;;;16.60;99.90;;;;;;5072901;28;20040;-77
2022/06/05 00:50:30;;;;;;;8.25;5.22;;;16.60;99.90;;;;;;5073189;28;20104;-76
2022/06/05 00:52:59;;;;;;;8.23;5.35;;;16.60;99.90;;;;;;5070166;28;20116;-76
2022/06/05 00:55:29;;;;;;;10.10;5.65;;;16.60;99.90;;;;;;5073099;28;20081;-77
2022/06/05 00:57:55;;;;;;;12.98;5.75;;;16.50;99.90;;;;;;5061974;28;20044;-76
2022/06/05 01:00:29;;;;;;;13.82;6.18;;;16.50;99.90;;;;;;5072382;28;20024;-76
2022/06/05 01:02:56;;;;;;;8.13;5.32;;;16.50;99.90;;;;;;5072803;28;20028;-77
2022/06/05 01:05:25;;;;;;;8.93;5.55;;;16.40;99.90;;;;;;5062992;28;20473;-76
2022/06/05 01:07:51;;;;;;;9.43;5.70;;;16.40;99.90;;;;;;5068798;28;20053;-77
2022/06/05 01:10:19;;;;;;;12.15;6.03;;;16.30;99.90;;;;;;5072871;28;20499;-76
2022/06/05 01:13:12;;;;;;;8.73;5.80;;;16.30;99.90;;;;;;5069204;28;20495;-76
2022/06/05 01:16:14;;;;;;;10.23;5.78;;;16.30;99.90;;;;;;5072604;28;20021;-76
2022/06/05 01:18:51;;;;;;;8.82;5.63;;;16.20;99.90;;;;;;5058593;28;20078;-77
2022/06/05 01:21:49;;;;;;;9.50;5.68;;;16.20;99.90;;;;;;5071202;28;20024;-76
2022/06/05 01:24:18;;;;;;;8.50;5.70;;;16.10;99.90;;;;;;5060924;28;20063;-76
2022/06/05 01:26:54;;;;;;;11.85;6.20;;;16.10;99.90;;;;;;5072418;28;20024;-76
2022/06/05 01:29:37;;;;;;;11.30;6.40;;;16.00;99.90;;;;;;5063292;28;20020;-76
2022/06/05 01:32:27;;;;;;;9.25;6.00;;;16.10;99.90;;;;;;5061912;28;20032;-76
2022/06/05 01:34:57;;;;;;;8.45;5.50;;;16.00;99.90;;;;;;5064795;28;20045;-77
2022/06/05 01:37:38;;;;;;;9.10;6.32;;;16.00;99.90;;;;;;5061658;28;20143;-76
2022/06/05 01:40:04;;;;;;;10.88;6.00;;;16.00;99.90;;;;;;5065708;28;20533;-77
2022/06/05 01:42:37;;;;;;;7.20;5.78;;;16.00;99.90;;;;;;5071747;28;20037;-76
2022/06/05 01:45:25;;;;;;;9.50;5.63;;;16.00;99.90;;;;;;5060040;28;20547;-77
2022/06/05 01:47:56;;;;;;;9.85;6.20;;;16.00;99.90;;;;;;5059823;28;20025;-76
2022/06/05 01:50:30;;;;;;;10.32;6.13;;;16.00;99.90;;;;;;5051735;28;20035;-76
2022/06/05 01:53:01;;;;;;;13.02;6.32;;;16.00;99.90;;;;;;5051676;28;20400;-76
2022/06/05 01:56:00;;;;;;;10.98;6.50;;;16.00;99.90;;;;;;5051931;28;20449;-76
2022/06/05 01:58:34;;;;;;;9.43;5.50;;;16.00;99.90;;;;;;5052303;28;20037;-76
2022/06/05 02:01:03;;;;;;;9.63;6.30;;;16.00;99.90;;;;;;5067626;28;20486;-76
2022/06/05 02:03:41;;;;;;;11.60;6.57;;;15.90;99.90;;;;;;5071784;28;20043;-76
2022/06/05 02:06:11;;;;;;;11.65;6.70;;;15.90;99.90;;;;;;5070213;28;20062;-77
2022/06/05 02:08:46;;;;;;;7.45;6.05;;;15.90;99.90;;;;;;5071575;28;20051;-76
2022/06/05 02:11:22;;;;;;;11.38;6.70;;;15.80;99.90;;;;;;5061075;28;20485;-76
2022/06/05 02:13:56;;;;;;;13.57;6.80;;;15.80;99.90;;;;;;5062330;28;20039;-77
2022/06/05 02:16:22;;;;;;;12.93;6.60;;;15.80;99.90;;;;;;5071315;28;20044;-77
2022/06/05 02:18:48;;;;;;;9.25;6.40;;;15.80;99.90;;;;;;5071463;28;20111;-76
2022/06/05 02:21:14;;;;;;;10.02;6.70;;;15.70;99.90;;;;;;5056682;28;20460;-76
2022/06/05 02:23:41;;;;;;;12.30;6.63;;;15.70;99.90;;;;;;5051512;28;20100;-76
2022/06/05 02:26:09;;;;;;;9.88;6.93;;;15.70;99.90;;;;;;5051126;28;20037;-76
2022/06/05 02:28:37;;;;;;;12.70;7.05;;;15.60;99.90;;;;;;5065529;28;20031;-76
2022/06/05 02:31:26;;;;;;;12.35;6.70;;;15.60;99.90;;;;;;5070069;28;20040;-76
2022/06/05 02:34:18;;;;;;;10.77;6.57;;;15.60;99.90;;;;;;5067187;28;20020;-76
2022/06/05 02:37:16;;;;;;;11.68;7.05;;;15.60;99.90;;;;;;5050934;28;20049;-76
2022/06/05 02:39:47;;;;;;;8.30;6.75;;;15.50;99.90;;;;;;5058867;28;20502;-76
2022/06/05 02:42:28;;;;;;;11.15;6.78;;;15.50;99.90;;;;;;5071325;28;20495;-76
2022/06/05 02:44:58;;;;;;;10.57;6.82;;;15.40;99.90;;;;;;5066130;28;20017;-76
2022/06/05 02:47:32;;;;;;;10.38;6.78;;;15.40;99.90;;;;;;5071421;28;20413;-76
2022/06/05 02:50:37;;;;;;;10.48;7.43;;;15.40;99.90;;;;;;5070917;28;20035;-77
2022/06/05 02:53:06;;;;;;;8.85;6.43;;;15.40;99.90;;;;;;5070737;28;20021;-77
2022/06/05 02:55:32;;;;;;;11.32;6.60;;;15.30;99.90;;;;;;5071261;28;20376;-76
2022/06/05 02:57:58;;;;;;;8.90;6.15;;;15.30;99.90;;;;;;5070906;28;20035;-76
2022/06/05 03:00:27;;;;;;;10.40;7.15;;;15.30;99.90;;;;;;5069885;28;20043;-76
2022/06/05 03:05:38;;;;;;;13.75;7.35;;;15.20;99.90;;;;;;5051545;28;20600;-76
2022/06/05 03:08:05;;;;;;;10.20;7.10;;;15.20;99.90;;;;;;5050565;28;20082;-76
2022/06/05 03:10:31;;;;;;;12.27;8.18;;;15.20;99.90;;;;;;5070630;28;20024;-77
2022/06/05 03:12:56;;;;;;;12.57;7.32;;;15.20;99.90;;;;;;5070670;28;20032;-76
2022/06/05 03:15:22;;;;;;;12.65;7.53;;;15.20;99.90;;;;;;5070029;28;20059;-77
2022/06/05 03:17:48;;;;;;;12.10;7.72;;;15.10;99.90;;;;;;5070674;28;20040;-76
2022/06/05 03:20:16;;;;;;;11.98;8.25;;;15.10;99.90;;;;;;5071162;28;20027;-76
2022/06/05 03:22:42;;;;;;;16.13;8.75;;;15.10;99.90;;;;;;5055602;28;20388;-76
2022/06/05 03:25:11;;;;;;;13.40;8.23;;;15.00;99.90;;;;;;5050642;28;20552;-76
2022/06/05 03:27:36;;;;;;;14.77;8.50;;;15.00;99.90;;;;;;5050879;28;20036;-76
2022/06/05 03:30:03;;;;;;;10.38;7.70;;;15.00;99.90;;;;;;5062144;28;20036;-76
2022/06/05 03:32:30;;;;;;;10.02;7.57;;;15.00;99.90;;;;;;5069428;28;20391;-76
2022/06/05 03:34:56;;;;;;;10.30;7.68;;;14.90;99.90;;;;;;5060482;28;20029;-76
2022/06/05 03:37:22;;;;;;;12.13;8.40;;;14.90;99.90;;;;;;5052538;28;20055;-76
2022/06/05 03:39:48;;;;;;;14.80;8.80;;;14.90;99.90;;;;;;5058725;28;20362;-77
2022/06/05 03:42:14;;;;;;;15.68;9.57;;;14.90;99.90;;;;;;5070887;28;20119;-76
2022/06/05 03:44:41;;;;;;;15.30;9.75;;;14.90;99.90;;;;;;5072905;28;20362;-76
2022/06/05 03:47:09;;;;;;;17.58;9.60;;;14.90;99.90;;;;;;5069559;28;20086;-76
2022/06/05 03:49:34;;;;;;;14.55;8.88;;;14.90;99.90;;;;;;5062760;28;20028;-78
2022/06/05 03:52:02;;;;;;;15.23;8.73;;;14.90;99.90;;;;;;5074069;28;20035;-76
2022/06/05 03:54:27;;;;;;;15.60;9.02;;;14.90;99.90;;;;;;5074228;28;20587;-76
2022/06/05 03:56:53;;;;;;;14.88;8.88;;;14.90;99.90;;;;;;5073734;28;20041;-76
2022/06/05 03:59:18;;;;;;;13.25;8.70;;;14.80;99.90;;;;;;5059910;28;20059;-76
2022/06/05 04:01:44;;;;;;;13.60;8.82;;;14.80;99.90;;;;;;5073321;28;20059;-77
2022/06/05 04:04:09;;;;;;;14.18;9.25;;;14.80;99.90;;;;;;5073891;28;20476;-77
2022/06/05 04:06:35;;;;;;;13.88;9.77;;;14.80;99.90;;;;;;5063918;28;20501;-77
2022/06/05 04:09:04;;;;;;;12.55;8.48;;;14.80;99.90;;;;;;5072485;28;20488;-76
2022/06/05 04:11:31;;;;;;;16.17;9.93;;;14.90;99.90;;;;;;5061717;28;20021;-76
2022/06/05 04:13:57;;;;;;;12.18;8.48;;;14.90;99.90;;;;;;5056691;28;20021;-76
2022/06/05 04:16:26;;;;;;;12.50;9.73;;;14.90;99.90;;;;;;5053888;28;20060;-77
2022/06/05 04:18:52;;;;;;;13.98;9.43;;;14.90;99.90;;;;;;5053276;28;20104;-76
2022/06/05 04:21:22;;;;;;;18.08;9.95;;;15.00;99.90;;;;;;5053559;28;20032;-76
2022/06/05 04:23:48;;;;;;;14.45;9.27;;;15.00;99.90;;;;;;5056875;28;20021;-76
2022/06/05 04:26:17;;;;;;;15.82;9.93;;;15.00;99.90;;;;;;5062535;28;20476;-76
2022/06/05 04:28:43;;;;;;;15.63;9.93;;;15.00;99.90;;;;;;5074014;28;20035;-76
2022/06/05 04:31:26;;;;;;;18.73;9.70;;;15.00;99.90;;;;;;5061243;28;20458;-76
2022/06/05 04:33:54;;;;;;;13.48;9.45;;;15.10;99.90;;;;;;5073202;28;20503;-77
2022/06/05 04:36:20;;;;;;;13.63;9.27;;;15.10;99.90;;;;;;5055199;28;20386;-76
2022/06/05 04:38:47;;;;;;;14.82;9.23;;;15.10;99.90;;;;;;5070924;28;20035;-76
2022/06/05 04:41:13;;;;;;;13.85;9.65;;;15.10;99.90;;;;;;5061667;28;20428;-76
2022/06/05 04:43:38;;;;;;;14.98;10.32;;;15.10;99.90;;;;;;5059027;28;20027;-76
2022/06/05 04:46:05;;;;;;;16.20;10.38;;;15.10;99.90;;;;;;5062360;28;20407;-76
2022/06/05 04:48:31;;;;;;;15.95;9.95;;;15.20;99.90;;;;;;5053291;28;20107;-76
2022/06/05 04:50:56;;;;;;;14.32;9.50;;;15.10;99.90;;;;;;5059506;28;20099;-76
2022/06/05 04:53:22;;;;;;;15.73;10.15;;;15.20;99.90;;;;;;5070729;28;20685;-76
2022/06/05 04:55:47;;;;;;;15.05;9.27;;;15.20;99.90;;;;;;5062024;28;20537;-76
2022/06/05 04:58:13;;;;;;;15.05;9.85;;;15.20;99.90;;;;;;5053096;28;20025;-76
2022/06/05 05:00:39;;;;;;;15.30;9.93;;;15.20;99.90;;;;;;5052937;28;20048;-76
2022/06/05 05:03:05;;;;;;;18.20;9.38;;;15.20;99.90;;;;;;5061685;28;20036;-76
2022/06/05 05:05:32;;;;;;;15.55;9.90;;;15.20;99.90;;;;;;5072630;28;20024;-76
2022/06/05 05:07:58;;;;;;;14.68;10.48;;;15.20;99.90;;;;;;5072068;28;20020;-76
2022/06/05 05:10:23;;;;;;;13.55;10.10;;;15.20;99.90;;;;;;5071853;28;20093;-76
2022/06/05 05:12:49;;;;;;;15.30;10.25;;;15.20;99.90;;;;;;5052577;28;20357;-77
2022/06/05 05:15:14;;;;;;;15.02;10.00;;;15.30;99.90;;;;;;5052739;28;20128;-76
2022/06/05 05:17:40;;;;;;;14.35;8.75;;;15.30;99.90;;;;;;5052387;28;20064;-76
2022/06/05 05:20:07;;;;;;;12.57;9.48;;;15.30;99.90;;;;;;5060853;28;20384;-76
2022/06/05 05:22:37;;;;;;;14.63;9.80;;;15.30;99.90;;;;;;5071942;28;20765;-76
2022/06/05 05:25:08;;;;;;;15.10;9.48;;;15.30;99.90;;;;;;5063372;28;20036;-77
2022/06/05 05:27:35;;;;;;;13.50;9.85;;;15.30;99.90;;;;;;5052656;28;20090;-76
2022/06/05 05:30:02;;;;;;;15.07;9.95;;;15.30;99.90;;;;;;5060833;28;20142;-76
2022/06/05 05:32:28;;;;;;;13.50;9.63;;;15.30;99.90;;;;;;5072713;28;20116;-76
2022/06/05 05:34:53;;;;;;;13.98;10.32;;;15.30;99.90;;;;;;5071906;28;20125;-76
2022/06/05 05:37:19;;;;;;;13.10;8.68;;;15.40;99.90;;;;;;5068419;28;20057;-76
2022/06/05 05:42:30;;;;;;;14.88;9.65;;;15.40;99.90;;;;;;5071677;28;20062;-77
2022/06/05 05:44:56;;;;;;;13.57;10.00;;;15.40;99.90;;;;;;5071683;28;20024;-76
2022/06/05 05:47:25;;;;;;;16.35;10.15;;;15.50;99.90;;;;;;5067128;28;20025;-76
2022/06/05 05:50:03;;;;;;;15.98;10.02;;;15.50;99.90;;;;;;5052175;28;20024;-77
2022/06/05 05:52:30;;;;;;;13.20;9.80;;;15.60;99.90;;;;;;5071640;28;20103;-77
2022/06/05 05:54:56;;;;;;;14.23;9.55;;;15.60;99.90;;;;;;5070605;28;20020;-76
2022/06/05 05:57:22;;;;;;;15.98;10.77;;;15.60;99.90;;;;;;5067211;28;20519;-76
2022/06/05 05:59:48;;;;;;;12.30;9.30;;;15.70;99.90;;;;;;5051475;28;20053;-77
2022/06/05 06:02:19;;;;;;;14.57;9.07;;;15.70;99.90;;;;;;5062276;28;20060;-76
2022/06/05 06:04:45;;;;;;;13.93;9.43;;;15.70;99.90;;;;;;5071434;28;20024;-76
2022/06/05 06:07:12;;;;;;;14.10;9.10;;;15.90;99.90;;;;;;5056780;28;20055;-76
2022/06/05 06:09:38;;;;;;;13.75;9.98;;;15.90;99.90;;;;;;5070444;28;20024;-76
2022/06/05 06:12:05;;;;;;;10.35;8.10;;;15.90;99.90;;;;;;5070281;28;20064;-77
2022/06/05 06:14:30;;;;;;;12.20;8.50;;;16.00;99.90;;;;;;5071691;28;20499;-77
2022/06/05 06:16:56;;;;;;;13.55;9.38;;;16.10;99.90;;;;;;5055203;28;20052;-76
2022/06/05 06:19:21;;;;;;;12.52;8.40;;;16.20;99.90;;;;;;5054187;28;20111;-76
2022/06/05 06:21:47;;;;;;;11.23;8.52;;;16.30;99.90;;;;;;5071913;28;20036;-76
2022/06/05 06:24:14;;;;;;;14.10;8.73;;;16.30;99.90;;;;;;5062172;28;20105;-76
2022/06/05 06:26:41;;;;;;;11.27;8.02;;;16.40;99.90;;;;;;5063336;28;20040;-76
2022/06/05 06:29:07;;;;;;;10.68;8.48;;;16.50;99.90;;;;;;5069537;28;20104;-76
2022/06/05 06:31:35;;;;;;;11.40;8.02;;;16.60;99.90;;;;;;5055825;28;20058;-77
2022/06/05 06:34:01;;;;;;;10.63;7.47;;;16.70;99.90;;;;;;5071260;28;20024;-76
2022/06/05 06:36:28;;;;;;;14.95;8.68;;;16.80;99.90;;;;;;5070913;28;20051;-76
2022/06/05 06:38:54;;;;;;;11.52;8.55;;;16.90;99.90;;;;;;5069698;28;20033;-77
2022/06/05 06:41:20;;;;;;;11.27;8.32;;;17.00;99.90;;;;;;5053571;28;20033;-76
2022/06/05 06:43:47;;;;;;;10.15;7.85;;;17.10;99.90;;;;;;5056941;28;20025;-76
2022/06/05 06:46:14;;;;;;;9.75;7.97;;;17.10;99.90;;;;;;5071239;28;20037;-77
2022/06/05 06:48:40;;;;;;;9.98;7.97;;;17.30;99.90;;;;;;5057930;28;20021;-76
2022/06/05 06:51:07;;;;;;;11.23;8.25;;;17.30;99.90;;;;;;5051157;28;20031;-76
2022/06/05 06:53:34;;;;;;;10.35;6.93;;;17.40;99.90;;;;;;5051108;28;20029;-76
2022/06/05 06:56:05;;;;;;;10.38;7.40;;;17.60;99.90;;;;;;5057079;28;20128;-76
2022/06/05 06:58:30;;;;;;;8.43;6.95;;;17.80;99.90;;;;;;5066868;28;20032;-76
2022/06/05 07:00:56;;;;;;;12.30;7.93;;;17.90;99.90;;;;;;5062824;28;20027;-75
2022/06/05 07:03:21;;;;;;;10.27;7.43;;;18.10;99.90;;;;;;5052556;28;20448;-75
2022/06/05 07:05:47;;;;;;;11.43;6.85;;;18.30;99.90;;;;;;5059603;28;20032;-75
2022/06/05 07:08:13;;;;;;;9.73;7.85;;;18.30;99.90;;;;;;5060093;28;20357;-75
2022/06/05 07:10:38;;;;;;;8.52;6.60;;;18.50;99.90;;;;;;5071088;28;20079;-75
2022/06/05 07:13:05;;;;;;;10.88;7.63;;;18.50;99.90;;;;;;5070319;28;20029;-75
2022/06/05 07:15:34;;;;;;;8.15;7.35;;;18.70;99.90;;;;;;5068876;28;21664;-75
2022/06/05 07:18:01;;;;;;;10.13;7.47;;;18.80;99.90;;;;;;5070496;28;20035;-75
2022/06/05 07:20:27;;;;;;;9.15;6.85;;;18.90;99.90;;;;;;5074964;28;20103;-75
2022/06/05 07:22:52;;;;;;;10.52;7.53;;;19.00;99.90;;;;;;5059514;28;20108;-76
2022/06/05 07:25:18;;;;;;;10.05;7.20;;;19.10;99.90;;;;;;5061127;28;20045;-75
2022/06/05 07:27:43;;;;;;;8.13;6.63;;;19.20;99.90;;;;;;5065395;28;20025;-75
2022/06/05 07:30:12;;;;;;;8.55;7.00;;;19.30;99.90;;;;;;5065525;28;20495;-75
2022/06/05 07:32:37;;;;;;;9.75;7.63;;;19.30;99.90;;;;;;5061953;28;20029;-75
2022/06/05 07:35:03;;;;;;;11.43;6.90;;;19.40;99.90;;;;;;5067467;28;20029;-75
2022/06/05 07:37:29;;;;;;;10.77;6.68;;;19.40;99.90;;;;;;5054519;28;20134;-76
2022/06/05 07:39:54;;;;;;;6.90;6.20;;;19.50;99.90;;;;;;5053906;28;20037;-75
2022/06/05 07:42:20;;;;;;;8.55;7.20;;;19.60;99.90;;;;;;5061585;28;20028;-75
2022/06/05 07:44:45;;;;;;;10.13;7.00;;;19.60;99.90;;;;;;5060398;28;20029;-75
2022/06/05 07:47:11;;;;;;;8.10;7.07;;;19.70;99.90;;;;;;5073231;28;20032;-75
2022/06/05 07:49:40;;;;;;;7.55;6.57;;;19.80;99.90;;;;;;5073171;28;20023;-75
2022/06/05 07:54:54;;;;;;;7.65;6.78;;;20.00;99.90;;;;;;5070692;28;20155;-75
2022/06/05 07:57:20;;;;;;;8.82;7.00;;;20.10;99.60;;;;;;5073648;28;20119;-75
2022/06/05 07:59:47;;;;;;;9.48;6.82;;;20.10;99.60;;;;;;5072769;28;20052;-75
2022/06/05 08:02:20;;;;;;;8.85;7.28;;;20.10;99.30;;;;;;5074122;28;20492;-75
2022/06/05 08:04:46;;;;;;;8.70;5.95;;;20.20;99.20;;;;;;5073779;28;20626;-75
2022/06/05 08:07:16;;;;;;;7.38;6.25;;;20.10;99.00;;;;;;5062423;28;20327;-75
2022/06/05 08:09:42;;;;;;;7.22;6.53;;;20.20;98.80;;;;;;5073762;28;20385;-75
2022/06/05 08:12:10;;;;;;;8.40;7.35;;;20.20;99.00;;;;;;5073449;28;20036;-76
2022/06/05 08:14:36;;;;;;;8.10;6.38;;;20.40;98.70;;;;;;5073855;28;20021;-76
2022/06/05 08:17:04;;;;;;;8.50;6.80;;;20.50;98.80;;;;;;5072690;28;20035;-75
2022/06/05 08:19:30;;;;;;;10.10;6.57;;;20.70;98.40;;;;;;5070458;28;20047;-75
2022/06/05 08:21:56;;;;;;;6.55;5.80;;;20.80;98.10;;;;;;5072207;28;20028;-76
2022/06/05 08:24:22;;;;;;;9.38;6.38;;;20.90;97.90;;;;;;5069413;28;20060;-75
2022/06/05 08:26:49;;;;;;;9.55;6.70;;;21.00;97.60;;;;;;5062848;28;20036;-75
2022/06/05 08:29:14;;;;;;;6.95;6.25;;;21.00;97.40;;;;;;5071172;28;20039;-75
2022/06/05 08:31:40;;;;;;;8.48;6.00;;;21.10;97.40;;;;;;5061156;28;20477;-75
2022/06/05 08:34:06;;;;;;;8.85;6.65;;;21.20;97.20;;;;;;5070553;28;20024;-76
2022/06/05 08:36:33;;;;;;;7.55;6.80;;;21.30;97.00;;;;;;5072552;28;20055;-76
2022/06/05 08:41:59;;;;;;;9.48;6.78;;;21.30;96.80;;;;;;5073694;28;20081;-75
2022/06/05 08:44:33;;;;;;;8.30;5.82;;;21.50;96.60;;;;;;5073109;28;20040;-76
2022/06/05 08:47:15;;;;;;;8.88;5.95;;;21.60;96.40;;;;;;5060788;28;20036;-76
2022/06/05 08:49:45;;;;;;;;;;;21.70;96.40;;;;;;5053903;28;20024;-76
2022/06/05 08:52:23;;;;;;;8.13;5.78;;;21.90;96.40;;;;;;5053212;28;19905;-75
2022/06/05 08:54:54;;;;;;;7.50;6.45;;;22.10;95.90;;;;;;5066093;28;20582;-76
2022/06/05 08:57:27;;;;;;;6.60;5.13;;;22.20;95.70;;;;;;5069392;28;20060;-76
2022/06/05 09:00:02;;;;;;;7.50;5.00;;;22.30;95.50;;;;;;5052550;28;20037;-76
2022/06/05 09:02:41;;;;;;;10.13;6.20;;;22.40;95.40;;;;;;5053236;28;20556;-76
2022/06/05 09:05:17;;;;;;;6.22;5.63;;;22.60;95.10;;;;;;5071971;28;20065;-75
2022/06/05 09:07:51;;;;;;;6.35;5.70;;;22.70;94.70;;;;;;5053005;28;20124;-76
2022/06/05 09:10:44;;;;;;;8.27;6.10;;;22.80;95.00;;;;;;5070624;28;20024;-76
2022/06/05 09:13:47;;;;;;;6.43;5.32;;;22.90;94.60;;;;;;5072202;28;20016;-76
2022/06/05 09:16:27;;;;;;;6.03;5.30;;;23.20;94.90;;;;;;5036942;28;20040;-76
2022/06/05 09:18:53;;;;;;;6.25;4.80;;;23.40;93.80;;;;;;5072727;28;20033;-76
2022/06/05 09:21:30;;;;;;;6.40;5.40;;;23.50;94.00;;;;;;5072012;28;20020;-76
2022/06/05 09:24:18;;;;;;;5.93;5.32;;;23.60;93.50;;;;;;5072093;28;20435;-77
2022/06/05 09:26:54;;;;;;;6.22;4.78;;;23.60;93.10;;;;;;5064705;28;20021;-76
2022/06/05 09:29:23;;;;;;;4.80;4.00;;;23.60;93.10;;;;;;5052548;28;20059;-76
2022/06/05 09:32:29;;;;;;;9.43;3.95;;;23.70;93.10;;;;;;5059371;28;20028;-76
2022/06/05 09:35:00;;;;;;;4.85;4.25;;;23.80;92.90;;;;;;5051818;28;20040;-76
2022/06/05 09:37:39;;;;;;;5.45;3.70;;;24.00;92.80;;;;;;5059479;28;20052;-76
2022/06/05 09:40:33;;;;;;;4.85;3.70;;;24.10;92.20;;;;;;5051725;28;20040;-76
2022/06/05 09:43:25;;;;;;;6.85;3.55;;;24.20;92.40;;;;;;5051332;28;20028;-76
2022/06/05 09:46:28;;;;;;;6.53;3.13;;;24.30;92.10;;;;;;5054764;28;20119;-76
2022/06/05 09:49:00;;;;;;;6.00;3.45;;;24.30;91.90;;;;;;5053515;28;20108;-76
2022/06/05 09:51:26;;;;;;;4.07;3.65;;;24.50;91.70;;;;;;5058311;28;20547;-76
2022/06/05 09:54:12;;;;;;;7.22;3.70;;;24.60;91.30;;;;;;5071764;28;20104;-76
2022/06/05 10:00:13;;;;;;;5.53;2.90;;;24.80;91.20;;;;;;5064676;28;20214;-76
2022/06/05 10:02:39;;;;;;;4.30;3.05;;;24.80;91.10;;;;;;5068545;28;20605;-77
2022/06/05 10:05:26;;;;;;;5.18;3.58;;;24.70;90.80;;;;;;5071497;28;20065;-76
2022/06/05 10:07:57;;;;;;;6.13;3.38;;;24.70;91.10;;;;;;5057816;28;20085;-76
2022/06/05 10:10:35;;;;;;;4.90;3.80;;;24.70;90.60;;;;;;5071521;28;20499;-76
2022/06/05 10:13:15;;;;;;;4.32;3.17;;;24.70;90.30;;;;;;5071539;28;20479;-76
2022/06/05 10:15:54;;;;;;;4.03;3.55;;;24.50;90.50;;;;;;5064011;28;20361;-76
2022/06/05 10:18:50;;;;;;;3.95;3.63;;;24.40;90.40;;;;;;5063058;28;20123;-76
2022/06/05 10:21:20;;;;;;;4.22;3.83;;;24.40;90.50;;;;;;5071831;28;20033;-76
2022/06/05 10:24:39;;;;;;;3.42;3.03;;;24.30;90.60;;;;;;5071577;28;20396;-76
2022/06/05 10:27:05;;;;;;;3.88;3.47;;;24.30;90.90;;;;;;5053093;28;20084;-76
2022/06/05 10:29:37;;;;;;;3.70;3.40;;;24.20;90.70;;;;;;5051424;28;20020;-76
2022/06/05 10:32:24;;;;;;;5.03;4.28;;;24.00;90.60;;;;;;5069516;28;20032;-76
2022/06/05 10:35:21;;;;;;;4.57;3.65;;;23.90;90.60;;;;;;5069724;28;20423;-76
2022/06/05 10:38:11;;;;;;;3.92;3.58;;;23.80;90.80;;;;;;5071722;28;20053;-76
2022/06/05 10:40:48;;;;;;;7.03;4.18;;;23.70;91.10;;;;;;5052102;28;20033;-76
2022/06/05 10:43:24;;;;;;;6.32;4.05;;;23.60;91.10;;;;;;5059188;28;20027;-76
2022/06/05 10:45:54;;;;;;;4.05;3.65;;;23.60;91.20;;;;;;5069244;28;20036;-76
2022/06/05 10:48:55;;;;;;;4.88;3.60;;;23.60;91.50;;;;;;5071332;28;20126;-76
2022/06/05 10:51:54;;;;;;;4.35;3.70;;;23.80;91.40;;;;;;5071526;28;20044;-77
2022/06/05 10:54:31;;;;;;;4.85;4.07;;;23.80;91.70;;;;;;5057944;28;20082;-75
2022/06/05 10:57:12;;;;;;;6.30;4.32;;;23.90;91.70;;;;;;5068374;28;20064;-76
2022/06/05 10:59:59;;;;;;;7.25;4.13;;;23.80;91.70;;;;;;5074526;28;20477;-76
2022/06/05 11:03:00;;;;;;;8.65;4.80;;;23.70;92.40;;;;;;5063304;28;20375;-76
2022/06/05 11:05:52;;;;;;;5.43;4.75;;;23.50;92.80;;;;;;5075472;28;20031;-76
2022/06/05 11:08:51;;;;;;;4.70;4.13;;;23.30;92.90;;;;;;5056549;28;20504;-76
2022/06/05 11:15:11;;;;;;;5.32;4.75;;;23.00;93.80;;;;;;5061118;28;20054;-76
2022/06/05 11:18:04;;;;;;;6.25;5.30;;;22.90;94.50;;;;;;5068754;28;20404;-76
2022/06/05 11:20:30;;;;;;;5.55;4.90;;;22.80;95.20;;;;;;5055186;28;20040;-76
2022/06/05 11:23:05;;;;;;;7.22;5.10;;;22.60;95.50;;;;;;5060095;28;20548;-76
2022/06/05 11:25:53;;;;;;;6.10;5.32;;;22.50;96.10;;;;;;5074581;28;20078;-76
2022/06/05 11:28:58;;;;;;;6.15;5.55;;;22.40;96.60;;;;;;5072485;28;20079;-76
2022/06/05 11:32:05;;;;;;;7.13;5.85;;;22.30;97.20;;;;;;5068196;28;20056;-76
2022/06/05 11:34:48;;;;;;;6.75;6.00;;;22.20;97.90;;;;;;5053955;28;20021;-76
2022/06/05 11:37:37;;;;;;;5.85;5.35;;;22.20;98.50;;;;;;5054369;28;20057;-76
2022/06/05 11:40:17;;;;;;;7.53;5.88;;;22.20;98.50;;;;;;5058146;28;20372;-76
2022/06/05 11:43:20;;;;;;;7.68;5.60;;;22.10;99.00;;;;;;5069340;28;20056;-76
2022/06/05 11:46:02;;;;;;;6.93;6.07;;;22.20;99.30;;;;;;5054428;28;20391;-76
2022/06/05 11:48:56;;;;;;;7.40;5.38;;;22.30;99.20;;;;;;5070850;28;20078;-76
2022/06/05 11:51:52;;;;;;;6.05;5.25;;;22.40;99.00;;;;;;5067016;28;20043;-76
2022/06/05 11:54:29;;;;;;;5.60;5.10;;;22.40;98.70;;;;;;5073578;28;20381;-76
2022/06/05 11:57:32;;;;;;;6.05;5.20;;;22.40;98.90;;;;;;5053469;28;20033;-76
2022/06/05 12:00:10;;;;;;;6.43;5.80;;;22.40;99.00;;;;;;5067600;28;20051;-76
2022/06/05 12:02:41;;;;;;;7.68;5.68;;;22.30;99.20;;;;;;5073499;28;20025;-76
2022/06/05 12:05:16;;;;;;;6.75;5.97;;;22.30;99.80;;;;;;5073003;28;20028;-76
2022/06/05 12:07:47;;;;;;;8.23;5.97;;;22.20;99.90;;;;;;5074395;28;20082;-76
2022/06/05 12:10:23;;;;;;;6.47;5.88;;;22.00;99.90;;;;;;5072676;28;20511;-76
2022/06/05 12:13:01;;;;;;;6.57;5.88;;;21.90;99.90;;;;;;5068834;28;20033;-76
2022/06/05 12:15:39;;;;;;;7.30;6.63;;;21.80;99.90;;;;;;5062064;28;20490;-76
2022/06/05 12:18:12;;;;;;;9.70;7.68;;;21.70;99.90;;;;;;5059093;28;20049;-76
2022/06/05 12:20:47;;;;;;;17.80;9.65;;;21.60;99.90;;;;;;5067906;28;20029;-76
2022/06/05 12:23:35;;;;;;;11.60;8.15;;;21.40;99.90;;;;;;5053837;28;20243;-75
2022/06/05 12:26:16;;;;;;;10.43;9.38;;;21.30;99.90;;;;;;5053301;28;20029;-75
2022/06/05 12:29:01;;;;;;;11.75;9.45;;;21.20;99.90;;;;;;5057357;28;20108;-75
2022/06/05 12:31:38;;;;;;;12.13;10.93;;;21.10;99.90;;;;;;5063185;28;20492;-75
2022/06/05 12:34:33;;;;;;;11.32;10.23;;;21.00;99.90;;;;;;5053232;28;20033;-75
2022/06/05 12:37:06;;;;;;;11.27;10.13;;;21.10;99.90;;;;;;5064446;28;20048;-76
2022/06/05 12:39:40;;;;;;;11.10;10.10;;;21.00;99.90;;;;;;5066399;28;20058;-76
2022/06/05 12:42:09;;;;;;;12.73;11.43;;;21.00;99.90;;;;;;5072480;28;20539;-75
2022/06/05 12:44:45;;;;;;;12.45;11.18;;;20.90;99.90;;;;;;5073482;28;20028;-76
2022/06/05 12:47:36;;;;;;;14.55;12.23;;;20.80;99.90;;;;;;5072149;28;20063;-76
2022/06/05 12:50:16;;;;;;;13.25;12.05;;;20.80;99.90;;;;;;5059815;28;20035;-75
2022/06/05 12:53:14;;;;;;;13.73;12.38;;;20.80;99.90;;;;;;5053328;28;20028;-75
2022/06/05 12:56:21;;;;;;;13.88;11.65;;;20.90;99.90;;;;;;5064059;28;20544;-75
2022/06/05 12:58:59;;;;;;;12.77;11.02;;;20.80;99.90;;;;;;5072033;28;20040;-75
2022/06/05 13:01:26;;;;;;;14.15;12.68;;;20.80;99.90;;;;;;5057212;28;20027;-75
2022/06/05 13:04:05;;;;;;;12.70;11.50;;;20.70;99.90;;;;;;5071610;28;20438;-75
2022/06/05 13:06:39;;;;;;;12.98;11.77;;;20.60;99.90;;;;;;5056006;28;20036;-75
2022/06/05 13:09:25;;;;;;;13.73;12.07;;;20.50;99.90;;;;;;5071638;28;20020;-75
2022/06/05 13:11:59;;;;;;;13.80;12.40;;;20.60;99.90;;;;;;5055045;28;20033;-76
2022/06/05 13:15:01;;;;;;;14.25;12.98;;;20.50;99.90;;;;;;5058603;28;20429;-75
2022/06/05 13:17:38;;;;;;;12.45;11.27;;;20.40;99.90;;;;;;5067580;28;20120;-75
2022/06/05 13:20:20;;;;;;;13.43;12.23;;;20.30;99.90;;;;;;5060493;28;20039;-75
2022/06/05 13:23:07;;;;;;;16.20;12.82;;;20.30;99.90;;;;;;5071515;28;20191;-75
2022/06/05 13:25:50;;;;;;;14.48;13.00;;;20.20;99.90;;;;;;5057318;28;20029;-76
2022/06/05 13:29:09;;;;;;;15.20;13.70;;;20.20;99.90;;;;;;5052574;28;20052;-75
2022/06/05 13:32:13;;;;;;;14.95;13.55;;;20.30;99.90;;;;;;4990538;28;20030;-76
2022/06/05 13:34:46;;;;;;;12.27;11.07;;;20.30;99.90;;;;;;5021470;28;20057;-76
2022/06/05 13:37:48;;;;;;;14.00;12.60;;;20.30;99.90;;;;;;5064171;28;20438;-75